Time;durP1;ratioP1;P1;durP2;ratioP2;P2;SDS_P1;SDS_P2;PMS_P1;PMS_P2;Temp;Humidity;BMP_temperature;BMP_pressure;BME280_temperature;BME280_humidity;BME280_pressure;Samples;Min_cycle;Max_cycle;Signal;HPM_P1;HPM_P2
2023/03/04 00:00:12;;;;;;;54.37;36.33;;;;;;;3.02;100.00;96669.22;5028999;28;103953;-67
2023/03/04 00:02:40;;;;;;;55.60;36.40;;;;;;;2.85;100.00;96667.91;5028354;28;105537;-67
2023/03/04 00:05:08;;;;;;;53.93;34.43;;;;;;;2.84;100.00;96670.75;5029153;28;101812;-67
2023/03/04 00:07:35;;;;;;;53.87;35.90;;;;;;;2.74;100.00;96668.47;5029366;28;105517;-67
2023/03/04 00:10:06;;;;;;;60.23;36.30;;;;;;;2.66;100.00;96667.84;5028434;28;105721;-67
2023/03/04 00:12:34;;;;;;;60.63;37.87;;;;;;;2.62;100.00;96666.63;5028612;28;101891;-67
2023/03/04 00:15:02;;;;;;;58.93;37.13;;;;;;;2.52;100.00;96668.78;5030143;28;102351;-67
2023/03/04 00:17:30;;;;;;;61.97;37.40;;;;;;;2.51;100.00;96672.41;5027986;28;105849;-67
2023/03/04 00:19:57;;;;;;;60.73;37.87;;;;;;;2.50;100.00;96671.59;5032275;28;101862;-67
2023/03/04 00:22:25;;;;;;;59.33;36.70;;;;;;;2.45;100.00;96676.59;5027985;28;105461;-67
2023/03/04 00:24:52;;;;;;;55.20;35.30;;;;;;;2.44;100.00;96679.41;5028516;28;102022;-67
2023/03/04 00:27:21;;;;;;;52.53;34.00;;;;;;;2.35;100.00;96683.22;5028633;28;105480;-67
2023/03/04 00:29:48;;;;;;;48.17;30.83;;;;;;;2.27;100.00;96670.22;5028324;28;105686;-67
2023/03/04 00:32:17;;;;;;;51.20;32.10;;;;;;;2.12;100.00;96669.50;5028804;28;101956;-67
2023/03/04 00:34:44;;;;;;;51.53;31.30;;;;;;;1.83;100.00;96664.47;5028574;28;105368;-67
2023/03/04 00:37:12;;;;;;;46.83;30.33;;;;;;;1.92;100.00;96661.50;5027839;28;105403;-67
2023/03/04 00:39:40;;;;;;;48.70;31.20;;;;;;;1.87;100.00;96668.34;5028650;28;101864;-67
2023/03/04 00:42:07;;;;;;;46.33;29.80;;;;;;;1.79;100.00;96661.41;5031564;28;105252;-67
2023/03/04 00:44:36;;;;;;;47.17;31.10;;;;;;;1.87;100.00;96663.09;5028111;28;102219;-67
2023/03/04 00:47:03;;;;;;;45.63;30.67;;;;;;;1.67;100.00;96670.78;5028236;28;105332;-67
2023/03/04 00:49:31;;;;;;;47.97;30.23;;;;;;;1.44;100.00;96667.56;5027992;28;105982;-67
2023/03/04 00:51:58;;;;;;;44.67;28.87;;;;;;;1.56;100.00;96665.22;5029741;28;101912;-67
2023/03/04 00:54:26;;;;;;;46.70;30.30;;;;;;;1.58;100.00;96663.25;5028403;28;104904;-67
2023/03/04 00:56:53;;;;;;;48.73;29.97;;;;;;;1.56;100.00;96662.59;5027786;28;105106;-67
2023/03/04 00:59:21;;;;;;;46.70;29.37;;;;;;;1.46;100.00;96665.53;5028293;28;101956;-67
2023/03/04 01:01:49;;;;;;;49.50;30.00;;;;;;;1.39;100.00;96669.09;5027833;28;104997;-67
2023/03/04 01:04:18;;;;;;;45.50;30.13;;;;;;;1.41;100.00;96669.72;5030890;28;101861;-67
2023/03/04 01:06:46;;;;;;;43.53;28.07;;;;;;;1.40;100.00;96666.28;5028427;28;105414;-67
2023/03/04 01:09:13;;;;;;;46.03;30.23;;;;;;;1.30;100.00;96662.34;5027576;28;106003;-67
2023/03/04 01:11:41;;;;;;;48.50;29.37;;;;;;;1.22;100.00;96663.28;5027886;28;101934;-67
2023/03/04 01:14:09;;;;;;;44.30;29.03;;;;;;;1.06;100.00;96657.47;5027992;28;105702;-67
2023/03/04 01:16:37;;;;;;;47.63;29.93;;;;;;;1.03;100.00;96663.06;5027401;28;105701;-67
2023/03/04 01:19:05;;;;;;;43.73;29.37;;;;;;;0.91;100.00;96657.50;5029817;28;101802;-67
2023/03/04 01:21:33;;;;;;;42.43;27.90;;;;;;;0.99;100.00;96656.59;5027830;28;105528;-67
2023/03/04 01:24:01;;;;;;;42.87;28.07;;;;;;;0.94;100.00;96653.72;5030918;28;105941;-67
2023/03/04 01:26:29;;;;;;;51.43;31.67;;;;;;;0.83;100.00;96654.19;5028236;28;105814;-67
2023/03/04 01:28:56;;;;;;;43.77;29.23;;;;;;;0.85;100.00;96658.25;5027394;27;105640;-67
2023/03/04 01:31:24;;;;;;;48.00;29.87;;;;;;;0.99;100.00;96661.84;5031066;28;101881;-67
2023/03/04 01:33:52;;;;;;;46.90;30.47;;;;;;;0.99;100.00;96651.34;5031724;28;105702;-67
2023/03/04 01:36:22;;;;;;;49.03;30.63;;;;;;;0.87;100.00;96658.88;5030954;28;105905;-67
2023/03/04 01:38:51;;;;;;;45.80;28.07;;;;;;;0.66;100.00;96663.25;5031634;28;102206;-67
2023/03/04 01:41:22;;;;;;;40.70;28.23;;;;;;;0.55;100.00;96658.47;5031140;28;105241;-67
2023/03/04 01:43:50;;;;;;;44.33;27.73;;;;;;;0.67;100.00;96657.00;5030227;28;105182;-67
2023/03/04 01:46:17;;;;;;;42.67;27.27;;;;;;;0.73;100.00;96656.28;5034580;28;101907;-67
2023/03/04 01:48:45;;;;;;;43.23;28.17;;;;;;;0.73;100.00;96651.03;5030934;28;105647;-67
2023/03/04 01:51:16;;;;;;;43.63;27.63;;;;;;;0.74;100.00;96650.03;5031211;28;102087;-67
2023/03/04 01:53:48;;;;;;;43.43;27.67;;;;;;;0.78;100.00;96644.25;5031143;28;105195;-67
2023/03/04 01:56:20;;;;;;;44.07;28.40;;;;;;;0.78;100.00;96643.47;5030569;28;104786;-67
2023/03/04 01:59:07;;;;;;;48.00;27.63;;;;;;;0.79;100.00;96643.28;5031212;28;101780;-67
2023/03/04 02:01:37;;;;;;;43.83;27.53;;;;;;;0.64;100.00;96633.81;5030877;28;102470;-67
2023/03/04 02:04:06;;;;;;;43.73;27.63;;;;;;;0.50;100.00;96638.06;5030256;28;105454;-67
2023/03/04 02:06:34;;;;;;;44.30;26.30;;;;;;;0.49;100.00;96620.75;5031093;28;101968;-67
2023/03/04 02:09:05;;;;;;;39.83;26.50;;;;;;;0.57;100.00;96625.91;5035406;28;102657;-67
2023/03/04 02:11:33;;;;;;;44.50;27.33;;;;;;;0.48;100.00;96620.94;5031187;28;101928;-68
2023/03/04 02:14:01;;;;;;;41.20;26.17;;;;;;;0.46;100.00;96623.75;5031171;28;104229;-67
2023/03/04 02:16:30;;;;;;;41.90;26.27;;;;;;;0.47;100.00;96629.78;5029922;28;105832;-67
2023/03/04 02:18:58;;;;;;;45.70;26.87;;;;;;;0.42;100.00;96626.91;5031020;28;101842;-67
2023/03/04 02:21:30;;;;;;;42.43;26.97;;;;;;;0.46;100.00;96617.69;5030847;28;104147;-67
2023/03/04 02:24:15;;;;;;;43.13;27.77;;;;;;;0.49;100.00;96614.69;5030066;28;104209;-67
2023/03/04 02:26:45;;;;;;;42.60;27.03;;;;;;;0.31;100.00;96611.66;5047182;27;102009;-67
2023/03/04 02:29:16;;;;;;;41.63;25.30;;;;;;;0.13;100.00;96608.63;5030542;28;105313;-67
2023/03/04 02:31:46;;;;;;;42.77;25.80;;;;;;;0.27;100.00;96610.41;5033379;28;105511;-67
2023/03/04 02:34:17;;;;;;;37.63;25.07;;;;;;;0.05;100.00;96608.69;5030752;28;105021;-67
2023/03/04 02:36:46;;;;;;;39.43;25.27;;;;;;;-0.06;100.00;96609.13;5029867;28;105718;-67
2023/03/04 02:39:24;;;;;;;39.17;24.77;;;;;;;0.14;100.00;96610.22;5030848;28;102050;-67
2023/03/04 02:41:55;;;;;;;37.97;25.53;;;;;;;0.22;100.00;96607.53;5029416;27;104973;-67
2023/03/04 02:44:25;;;;;;;36.77;24.57;;;;;;;0.15;100.00;96604.00;5029680;28;105697;-67
2023/03/04 02:46:53;;;;;;;36.50;24.70;;;;;;;0.21;100.00;96611.94;5030013;28;102082;-67
2023/03/04 02:49:22;;;;;;;32.33;24.10;;;;;;;0.12;100.00;96599.16;5030726;28;105193;-67
2023/03/04 02:51:52;;;;;;;30.20;23.13;;;;;;;0.11;100.00;96602.75;5029753;28;104456;-67
2023/03/04 02:54:22;;;;;;;33.77;24.07;;;;;;;0.11;100.00;96610.59;5033867;28;102312;-67
2023/03/04 02:56:51;;;;;;;32.13;23.90;;;;;;;0.11;100.00;96605.38;5029536;28;105577;-67
2023/03/04 02:59:21;;;;;;;32.57;23.47;;;;;;;0.10;100.00;96601.94;5030084;28;102288;-67
2023/03/04 03:01:51;;;;;;;33.63;24.07;;;;;;;0.00;100.00;96600.59;5029888;28;105691;-67
2023/03/04 03:04:19;;;;;;;33.17;23.90;;;;;;;-0.03;100.00;96603.56;5029731;28;105627;-67
2023/03/04 03:06:47;;;;;;;33.27;23.73;;;;;;;0.04;100.00;96602.66;5030275;28;101968;-67
2023/03/04 03:09:16;;;;;;;30.63;23.60;;;;;;;-0.13;100.00;96606.44;5030197;28;105501;-67
2023/03/04 03:11:43;;;;;;;32.10;23.70;;;;;;;-0.16;100.00;96604.19;5029283;28;106026;-67
2023/03/04 03:14:12;;;;;;;32.27;23.40;;;;;;;-0.15;100.00;96605.00;5032911;28;101949;-67
2023/03/04 03:16:42;;;;;;;33.73;23.83;;;;;;;-0.01;100.00;96605.00;5029342;28;105681;-67
2023/03/04 03:19:09;;;;;;;38.03;25.50;;;;;;;0.01;100.00;96604.84;5030192;28;101850;-67
2023/03/04 03:21:37;;;;;;;34.53;25.17;;;;;;;-0.28;100.00;96610.84;5030117;28;105247;-67
2023/03/04 03:24:04;;;;;;;33.60;24.03;;;;;;;-0.17;100.00;96611.41;5028986;28;104501;-67
2023/03/04 03:26:32;;;;;;;32.83;23.80;;;;;;;-0.18;100.00;96613.19;5029837;28;101952;-67
2023/03/04 03:29:00;;;;;;;35.17;24.93;;;;;;;-0.24;100.00;96603.44;5030089;28;105158;-67
2023/03/04 03:31:29;;;;;;;34.17;25.13;;;;;;;-0.22;100.00;96602.28;5029222;28;105159;-67
2023/03/04 03:33:58;;;;;;;35.70;24.33;;;;;;;-0.21;100.00;96608.34;5029489;28;101908;-67
2023/03/04 03:36:25;;;;;;;34.50;23.40;;;;;;;-0.10;100.00;96605.28;5032559;28;105261;-67
2023/03/04 03:38:53;;;;;;;33.60;25.13;;;;;;;-0.06;100.00;96607.34;5029817;28;101895;-67
2023/03/04 03:41:21;;;;;;;33.33;23.77;;;;;;;-0.11;100.00;96603.63;5029881;28;101815;-67
2023/03/04 03:43:52;;;;;;;40.40;26.30;;;;;;;-0.10;100.00;96606.06;5028968;28;105474;-67
2023/03/04 03:46:21;;;;;;;40.17;25.23;;;;;;;-0.18;100.00;96602.72;5029214;28;101957;-67
2023/03/04 03:48:49;;;;;;;39.17;25.63;;;;;;;-0.19;100.00;96606.34;5029922;28;105331;-67
2023/03/04 03:51:18;;;;;;;37.70;24.97;;;;;;;-0.25;100.00;96607.06;5028819;28;105473;-67
2023/03/04 03:53:46;;;;;;;36.53;24.73;;;;;;;-0.22;100.00;96606.69;5029300;27;101901;-67
2023/03/04 03:56:13;;;;;;;39.23;24.43;;;;;;;-0.23;100.00;96610.28;5029426;28;106442;-67
2023/03/04 03:58:41;;;;;;;37.63;24.77;;;;;;;-0.11;100.00;96606.25;5032558;28;105484;-67
2023/03/04 04:01:10;;;;;;;41.73;26.03;;;;;;;-0.05;100.00;96611.56;5029664;28;104698;-67
2023/03/04 04:03:40;;;;;;;44.60;27.60;;;;;;;0.02;100.00;96614.28;5028989;28;105719;-67
2023/03/04 04:06:09;;;;;;;44.03;26.73;;;;;;;-0.05;100.00;96610.78;5029148;28;101915;-67
2023/03/04 04:08:39;;;;;;;43.43;27.60;;;;;;;-0.01;100.00;96599.78;5029537;28;105107;-67
2023/03/04 04:11:06;;;;;;;47.33;27.67;;;;;;;-0.12;100.00;96602.00;5028774;28;105793;-67
2023/03/04 04:13:33;;;;;;;53.63;30.03;;;;;;;-0.23;100.00;96605.06;5029222;28;101914;-67
2023/03/04 04:16:01;;;;;;;55.63;30.87;;;;;;;-0.06;100.00;96606.53;5028493;28;104128;-67
2023/03/04 04:18:31;;;;;;;57.77;31.80;;;;;;;0.02;100.00;96606.44;5028697;28;105473;-67
2023/03/04 04:20:59;;;;;;;59.93;33.13;;;;;;;0.16;100.00;96605.63;5032676;28;101808;-67
2023/03/04 04:23:27;;;;;;;54.23;32.17;;;;;;;0.09;100.00;96608.16;5030151;27;102791;-67
2023/03/04 04:25:58;;;;;;;54.50;31.67;;;;;;;0.14;100.00;96613.66;5028814;28;102055;-67
2023/03/04 04:28:27;;;;;;;56.00;32.50;;;;;;;0.09;100.00;96609.97;5029345;28;105660;-67
2023/03/04 04:30:55;;;;;;;57.20;32.60;;;;;;;0.22;100.00;96610.16;5028080;28;105378;-67
2023/03/04 04:33:22;;;;;;;55.03;32.50;;;;;;;0.25;100.00;96609.78;5028820;28;101787;-67
2023/03/04 04:35:49;;;;;;;53.30;31.63;;;;;;;0.20;100.00;96606.91;5029248;28;105641;-67
2023/03/04 04:38:16;;;;;;;49.73;30.77;;;;;;;0.35;100.00;96603.28;5028170;28;104427;-68
2023/03/04 04:40:44;;;;;;;51.43;31.60;;;;;;;0.51;100.00;96599.66;5028342;28;101930;-68
2023/03/04 04:43:14;;;;;;;54.07;31.50;;;;;;;0.54;100.00;96604.50;5031682;28;105183;-68
2023/03/04 04:45:42;;;;;;;52.27;31.83;;;;;;;0.62;100.00;96602.59;5028498;28;101829;-68
2023/03/04 04:48:09;;;;;;;55.40;32.67;;;;;;;0.47;100.00;96596.59;5028615;28;104014;-68
2023/03/04 04:50:37;;;;;;;51.33;32.67;;;;;;;0.49;100.00;96599.00;5028296;28;106118;-68
2023/03/04 04:53:05;;;;;;;55.37;33.80;;;;;;;0.42;100.00;96601.56;5028712;28;101878;-68
2023/03/04 04:55:34;;;;;;;54.33;32.00;;;;;;;0.47;100.00;96604.44;5030375;28;102783;-68
2023/03/04 04:58:02;;;;;;;53.57;32.73;;;;;;;0.38;100.00;96604.69;5028449;28;105727;-68
2023/03/04 05:00:30;;;;;;;50.93;32.03;;;;;;;0.43;100.00;96610.19;5028168;28;101938;-68
2023/03/04 05:02:58;;;;;;;48.97;32.03;;;;;;;0.47;100.00;96604.44;5028773;28;104911;-68
2023/03/04 05:05:25;;;;;;;53.37;32.70;;;;;;;0.53;100.00;96605.50;5030725;28;105717;-68
2023/03/04 05:07:57;;;;;;;54.93;32.53;;;;;;;0.54;100.00;96605.31;5028806;28;105479;-68
2023/03/04 05:10:24;;;;;;;51.93;32.00;;;;;;;0.65;100.00;96606.66;5027549;28;105744;-68
2023/03/04 05:12:53;;;;;;;51.97;33.63;;;;;;;0.65;100.00;96611.88;5028364;28;101926;-68
2023/03/04 05:15:21;;;;;;;54.30;32.13;;;;;;;0.62;100.00;96610.44;5028387;28;105387;-69
2023/03/04 05:17:50;;;;;;;55.43;33.17;;;;;;;0.61;100.00;96611.44;5027825;28;105758;-68
2023/03/04 05:20:18;;;;;;;57.70;33.63;;;;;;;0.62;100.00;96609.66;5029957;27;101834;-68
2023/03/04 05:22:46;;;;;;;50.93;33.03;;;;;;;0.60;100.00;96609.03;5027396;28;104223;-68
2023/03/04 05:25:16;;;;;;;51.00;32.67;;;;;;;0.66;100.00;96605.69;5032686;28;103020;-68
2023/03/04 05:27:43;;;;;;;51.43;32.47;;;;;;;0.69;100.00;96613.16;5029683;28;103073;-68
2023/03/04 05:30:15;;;;;;;52.90;32.90;;;;;;;0.60;100.00;96611.66;5027985;28;105273;-68
2023/03/04 05:32:42;;;;;;;52.10;32.90;;;;;;;0.56;100.00;96605.94;5027519;28;101843;-68
2023/03/04 05:35:12;;;;;;;52.73;32.53;;;;;;;0.73;100.00;96612.59;5028096;28;104974;-68
2023/03/04 05:37:39;;;;;;;56.60;33.33;;;;;;;0.68;100.00;96609.72;5029100;28;102474;-68
2023/03/04 05:40:08;;;;;;;53.10;32.53;;;;;;;0.70;100.00;96609.53;5028293;28;101939;-68
2023/03/04 05:42:36;;;;;;;52.33;33.07;;;;;;;0.71;100.00;96617.19;5028302;28;105632;-68
2023/03/04 05:45:04;;;;;;;50.13;32.27;;;;;;;0.77;100.00;96613.06;5009822;28;105962;-68
2023/03/04 05:47:32;;;;;;;53.90;32.43;;;;;;;0.80;100.00;96610.06;5011224;28;101994;-68
2023/03/04 05:50:01;;;;;;;53.47;32.40;;;;;;;0.98;100.00;96608.66;5007489;28;104638;-68
2023/03/04 05:52:31;;;;;;;56.10;34.30;;;;;;;0.94;100.00;96619.69;5007414;28;101934;-68
2023/03/04 05:54:58;;;;;;;57.13;34.00;;;;;;;0.98;100.00;96624.34;5007115;28;105587;-68
2023/03/04 05:57:26;;;;;;;52.93;33.97;;;;;;;1.06;100.00;96615.56;5006596;28;105416;-68
2023/03/04 05:59:53;;;;;;;54.20;34.23;;;;;;;1.06;100.00;96620.81;5010398;28;102047;-68
2023/03/04 06:02:22;;;;;;;54.70;34.27;;;;;;;1.08;100.00;96619.63;5006957;28;105339;-68
2023/03/04 06:04:49;;;;;;;54.90;34.20;;;;;;;1.11;100.00;96623.69;5006673;28;105761;-68
2023/03/04 06:07:20;;;;;;;56.93;34.77;;;;;;;1.09;100.00;96630.94;5008586;28;101914;-68
2023/03/04 06:09:49;;;;;;;60.60;35.90;;;;;;;1.21;100.00;96627.59;5009603;28;105351;-68
2023/03/04 06:12:17;;;;;;;56.60;34.93;;;;;;;1.26;100.00;96637.53;5007100;28;101865;-68
2023/03/04 06:14:45;;;;;;;55.03;35.57;;;;;;;1.29;100.00;96635.34;5006655;28;105043;-68
2023/03/04 06:17:13;;;;;;;58.40;35.33;;;;;;;1.24;100.00;96634.28;5009629;28;104787;-68
2023/03/04 06:19:41;;;;;;;54.27;35.40;;;;;;;1.18;100.00;96640.28;5010293;28;101979;-68
2023/03/04 06:22:09;;;;;;;55.77;35.37;;;;;;;1.22;100.00;96646.75;5010221;28;105535;-68
2023/03/04 06:24:38;;;;;;;56.13;35.57;;;;;;;1.25;100.00;96649.00;5009523;28;102793;-68
2023/03/04 06:27:07;;;;;;;60.97;36.80;;;;;;;1.25;100.00;96647.19;5011679;28;101963;-68
2023/03/04 06:29:35;;;;;;;58.37;35.73;;;;;;;1.19;100.00;96655.81;5010154;28;105115;-68
2023/03/04 06:32:02;;;;;;;55.63;34.90;;;;;;;1.18;100.00;96666.47;5012890;28;105362;-68
2023/03/04 06:34:32;;;;;;;54.70;34.93;;;;;;;1.20;100.00;96659.25;5009923;28;105070;-68
2023/03/04 06:37:00;;;;;;;55.67;34.80;;;;;;;1.32;100.00;96663.00;5010098;28;105786;-68
2023/03/04 06:39:27;;;;;;;51.60;33.87;;;;;;;1.40;100.00;96670.72;5010276;28;102001;-68
2023/03/04 06:41:54;;;;;;;71.07;42.13;;;;;;;1.30;100.00;96664.97;5010328;28;105187;-68
2023/03/04 06:44:24;;;;;;;73.60;45.57;;;;;;;1.35;100.00;96663.44;5020473;28;105437;-68
2023/03/04 06:46:51;;;;;;;65.50;40.07;;;;;;;1.35;100.00;96662.59;5030170;28;101959;-68
2023/03/04 06:49:19;;;;;;;63.40;37.23;;;;;;;1.52;100.00;96671.84;5030339;28;105767;-69
2023/03/04 06:51:46;;;;;;;56.43;34.43;;;;;;;1.35;100.00;96673.91;5029735;28;105556;-68
2023/03/04 06:54:15;;;;;;;56.37;33.73;;;;;;;1.33;100.00;96675.09;5034342;28;101922;-68
2023/03/04 06:56:42;;;;;;;56.87;34.33;;;;;;;1.26;100.00;96675.00;5030182;28;105525;-68
2023/03/04 06:59:10;;;;;;;58.43;36.23;;;;;;;1.32;100.00;96673.47;5031439;27;102162;-68
2023/03/04 07:01:38;;;;;;;58.33;36.07;;;;;;;1.53;100.00;96681.34;5029920;28;105537;-68
2023/03/04 07:04:10;;;;;;;58.60;33.57;;;;;;;1.54;100.00;96680.34;5029886;28;105309;-68
2023/03/04 07:06:37;;;;;;;56.60;33.80;;;;;;;1.52;100.00;96683.13;5031913;28;101822;-68
2023/03/04 07:09:05;;;;;;;54.27;32.47;;;;;;;1.63;100.00;96674.78;5030382;28;104893;-68
2023/03/04 07:11:32;;;;;;;60.37;34.97;;;;;;;1.76;100.00;96676.72;5029338;28;105674;-68
2023/03/04 07:14:00;;;;;;;58.20;35.57;;;;;;;1.74;100.00;96686.56;5029759;28;101848;-68
2023/03/04 07:16:27;;;;;;;59.13;34.37;;;;;;;1.73;100.00;96682.31;5034206;28;102774;-68
2023/03/04 07:18:56;;;;;;;59.80;34.53;;;;;;;1.90;100.00;96688.91;5029481;28;101941;-68
2023/03/04 07:21:24;;;;;;;61.33;35.20;;;;;;;1.88;100.00;96680.44;5029443;28;105216;-68
2023/03/04 07:23:52;;;;;;;60.50;34.70;;;;;;;2.07;100.00;96691.09;5028518;28;105714;-68
2023/03/04 07:26:19;;;;;;;60.50;34.60;;;;;;;2.23;100.00;96684.72;5029201;28;101972;-68
2023/03/04 07:28:46;;;;;;;61.83;36.00;;;;;;;2.30;100.00;96685.59;5028637;27;105362;-68
2023/03/04 07:31:21;;;;;;;58.40;35.23;;;;;;;2.37;100.00;96684.66;5028722;28;105693;-68
2023/03/04 07:33:48;;;;;;;53.23;33.53;;;;;;;2.32;100.00;96683.59;5029130;28;102232;-68
2023/03/04 07:36:18;;;;;;;52.33;33.07;;;;;;;2.29;100.00;96681.38;5032228;28;105606;-68
2023/03/04 07:38:46;;;;;;;55.83;33.33;;;;;;;2.47;100.00;96679.03;5029083;28;101904;-68
2023/03/04 07:41:14;;;;;;;54.63;32.70;;;;;;;2.44;100.00;96682.03;5028965;28;105188;-68
2023/03/04 07:43:41;;;;;;;53.23;32.17;;;;;;;2.33;100.00;96685.19;5027693;28;105946;-68
2023/03/04 07:46:09;;;;;;;54.50;33.13;;;;;;;2.43;100.00;96680.44;5028538;28;102201;-68
2023/03/04 07:48:37;;;;;;;53.57;32.23;;;;;;;2.59;100.00;96682.75;5028764;28;105743;-68
2023/03/04 07:51:07;;;;;;;49.90;32.47;;;;;;;2.72;100.00;96685.44;5029734;27;103021;-68
2023/03/04 07:53:38;;;;;;;48.57;31.13;;;;;;;2.73;100.00;96682.63;5028878;28;102029;-73
2023/03/04 07:56:07;;;;;;;52.07;32.03;;;;;;;2.85;100.00;96686.31;5028886;28;105466;-73
2023/03/04 07:58:34;;;;;;;49.57;31.33;;;;;;;2.95;100.00;96686.75;5031942;28;105605;-73
2023/03/04 08:01:01;;;;;;;49.00;30.40;;;;;;;3.14;100.00;96682.59;5028719;28;104914;-73
2023/03/04 08:03:29;;;;;;;49.70;31.10;;;;;;;3.34;100.00;96686.09;5028293;28;105767;-73
2023/03/04 08:05:56;;;;;;;43.27;29.23;;;;;;;3.22;100.00;96687.69;5030084;28;101712;-73
2023/03/04 08:08:23;;;;;;;46.27;29.77;;;;;;;3.09;100.00;96687.63;5028926;28;105423;-73
2023/03/04 08:10:52;;;;;;;46.63;30.60;;;;;;;3.07;100.00;96679.94;5027974;28;105011;-73
2023/03/04 08:13:20;;;;;;;47.13;29.53;;;;;;;3.21;100.00;96688.66;5028120;28;102121;-73
2023/03/04 08:15:47;;;;;;;46.43;29.47;;;;;;;3.44;100.00;96689.97;5028697;28;105044;-72
2023/03/04 08:18:13;;;;;;;46.03;28.97;;;;;;;3.52;100.00;96692.41;5027523;28;104949;-73
2023/03/04 08:20:42;;;;;;;44.23;27.97;;;;;;;3.61;100.00;96693.03;5031885;28;101845;-73
2023/03/04 08:23:10;;;;;;;43.93;28.07;;;;;;;3.69;100.00;96687.56;5028074;28;105095;-73
2023/03/04 08:25:39;;;;;;;40.47;25.20;;;;;;;3.79;100.00;96683.56;5028472;28;102031;-73
2023/03/04 08:28:08;;;;;;;39.70;25.50;;;;;;;3.92;100.00;96686.19;5028201;28;105304;-73
2023/03/04 08:30:36;;;;;;;37.27;23.53;;;;;;;3.98;100.00;96684.59;5027956;28;105604;-73
2023/03/04 08:33:04;;;;;;;35.63;23.60;;;;;;;4.19;100.00;96684.34;5028372;28;101871;-73
2023/03/04 08:35:31;;;;;;;39.53;24.07;;;;;;;4.36;100.00;96685.59;5028560;28;104775;-73
2023/03/04 08:37:58;;;;;;;32.30;21.60;;;;;;;4.49;100.00;96678.47;5027881;28;105077;-73
2023/03/04 08:40:25;;;;;;;28.60;20.57;;;;;;;4.70;100.00;96675.56;5026961;27;101873;-73
2023/03/04 08:42:53;;;;;;;34.53;20.97;;;;;;;5.03;100.00;96678.13;5031146;28;105460;-73
2023/03/04 08:45:21;;;;;;;37.83;21.90;;;;;;;5.20;100.00;96677.44;5028325;28;102010;-73
2023/03/04 08:47:48;;;;;;;30.53;21.00;;;;;;;5.36;100.00;96673.50;5029219;28;101838;-73
2023/03/04 08:50:15;;;;;;;30.80;20.63;;;;;;;5.35;100.00;96675.31;5027836;28;105445;-73
2023/03/04 08:52:42;;;;;;;32.80;20.50;;;;;;;5.75;100.00;96668.00;5028207;28;101870;-73
2023/03/04 08:55:09;;;;;;;31.00;21.30;;;;;;;5.54;100.00;96666.50;5027990;28;105179;-73
2023/03/04 08:57:36;;;;;;;29.73;20.97;;;;;;;5.56;100.00;96668.94;5027869;28;105440;-73
2023/03/04 09:00:04;;;;;;;28.93;20.17;;;;;;;5.62;100.00;96665.44;5027981;28;101889;-73
2023/03/04 09:02:32;;;;;;;27.70;19.00;;;;;;;5.71;100.00;96664.16;5027602;28;105353;-73
2023/03/04 09:05:00;;;;;;;27.17;19.07;;;;;;;5.81;100.00;96664.53;5032316;27;103059;-68
2023/03/04 09:07:30;;;;;;;27.63;19.30;;;;;;;5.95;100.00;96666.06;5027967;28;105400;-68
2023/03/04 09:10:01;;;;;;;25.37;18.87;;;;;;;6.19;100.00;96662.59;5027238;28;105665;-68
2023/03/04 09:12:31;;;;;;;26.53;18.73;;;;;;;6.27;100.00;96664.97;5027317;28;102174;-68
2023/03/04 09:15:02;;;;;;;23.67;16.63;;;;;;;5.98;100.00;96662.97;5027597;28;105434;-68
2023/03/04 09:17:55;;;;;;;24.17;16.50;;;;;;;5.98;100.00;96670.88;5027285;28;105725;-68
2023/03/04 09:20:23;;;;;;;30.73;19.13;;;;;;;5.86;100.00;96664.69;5028305;27;102027;-68
2023/03/04 09:22:51;;;;;;;28.80;19.43;;;;;;;5.86;100.00;96664.69;5027471;28;105298;-68
2023/03/04 09:25:25;;;;;;;28.67;18.97;;;;;;;6.00;100.00;96656.47;5026851;28;105677;-68
2023/03/04 09:27:55;;;;;;;29.37;19.50;;;;;;;5.75;100.00;96655.63;5030631;28;101805;-68
2023/03/04 09:30:25;;;;;;;27.57;19.37;;;;;;;6.02;100.00;96654.44;5026983;28;105630;-68
2023/03/04 09:33:19;;;;;;;28.77;18.93;;;;;;;6.31;100.00;96650.31;5027505;28;101857;-68
2023/03/04 09:35:47;;;;;;;28.33;18.73;;;;;;;6.30;100.00;96652.16;5026548;28;104295;-68
2023/03/04 09:38:15;;;;;;;27.97;19.23;;;;;;;6.19;100.00;96652.84;5026812;28;105951;-68
2023/03/04 09:40:49;;;;;;;29.97;19.27;;;;;;;6.48;100.00;96646.06;5028751;27;102116;-68
2023/03/04 09:43:22;;;;;;;31.03;20.63;;;;;;;6.87;100.00;96640.38;5026761;28;105319;-68
2023/03/04 09:45:53;;;;;;;29.57;19.50;;;;;;;7.16;100.00;96639.63;5026637;28;105785;-68
2023/03/04 09:48:26;;;;;;;29.97;20.97;;;;;;;7.09;100.00;96644.19;5030662;28;101844;-68
2023/03/04 09:54:14;;;;;;;24.90;18.20;;;;;;;7.15;100.00;96638.00;5029447;28;102028;-68
2023/03/04 09:56:42;;;;;;;27.87;19.10;;;;;;;7.11;100.00;96642.13;5030524;28;105574;-68
2023/03/04 09:59:26;;;;;;;26.90;19.70;;;;;;;7.34;100.00;96642.22;5031452;28;102715;-68
2023/03/04 10:02:03;;;;;;;29.23;20.30;;;;;;;7.32;100.00;96636.34;5030417;28;101868;-68
2023/03/04 10:04:44;;;;;;;30.13;20.27;;;;;;;7.56;100.00;96624.81;5030440;28;105909;-68
2023/03/04 10:07:21;;;;;;;27.43;21.20;;;;;;;7.44;100.00;96631.91;5031535;28;103085;-68
2023/03/04 10:10:05;;;;;;;26.43;19.90;;;;;;;7.33;100.00;96635.31;5030256;28;101898;-68
2023/03/04 10:12:38;;;;;;;31.87;21.07;;;;;;;7.70;100.00;96627.03;5034948;28;102963;-68
2023/03/04 10:15:18;;;;;;;32.07;21.93;;;;;;;7.37;100.00;96628.56;5030510;28;101991;-68
2023/03/04 10:18:05;;;;;;;31.13;21.17;;;;;;;7.62;100.00;96615.97;5030425;28;105708;-68
2023/03/04 10:20:53;;;;;;;30.07;21.40;;;;;;;7.80;100.00;96616.72;5029744;28;105318;-68
2023/03/04 10:23:27;;;;;;;31.63;21.90;;;;;;;8.28;100.00;96608.66;5027919;28;102014;-68
2023/03/04 10:25:54;;;;;;;32.70;22.13;;;;;;;8.50;100.00;96607.03;5030304;28;105396;-64
2023/03/04 10:28:26;;;;;;;33.63;22.90;;;;;;;8.75;100.00;96599.59;5030761;28;102494;-66
2023/03/04 10:30:59;;;;;;;31.60;21.53;;;;;;;8.36;100.00;96606.44;5030325;28;101824;-65
2023/03/04 10:33:30;;;;;;;33.23;22.33;;;;;;;8.69;100.00;96604.00;5030108;28;104799;-71
2023/03/04 10:36:02;;;;;;;30.87;22.00;;;;;;;9.03;100.00;96607.59;5033278;28;105074;-67
2023/03/04 10:38:32;;;;;;;31.50;21.47;;;;;;;9.05;100.00;96605.53;5029922;28;105327;-62
2023/03/04 10:41:00;;;;;;;30.37;22.23;;;;;;;9.46;100.00;96602.59;5029491;28;105352;-64
2023/03/04 10:43:27;;;;;;;31.93;22.50;;;;;;;9.52;100.00;96585.72;5029520;28;101840;-60
2023/03/04 10:46:00;;;;;;;34.43;22.87;;;;;;;9.39;100.00;96591.31;5030242;28;105084;-61
2023/03/04 10:48:29;;;;;;;34.67;22.07;;;;;;;9.54;100.00;96587.09;5030758;27;102637;-60
2023/03/04 10:51:12;;;;;;;30.40;23.53;;;;;;;9.08;100.00;96589.94;5029830;28;102000;-60
2023/03/04 10:53:43;;;;;;;33.90;23.57;;;;;;;8.61;100.00;96585.78;5031470;27;102341;-63
2023/03/04 10:56:31;;;;;;;31.83;22.67;;;;;;;8.68;100.00;96589.09;5029398;28;105769;-61
2023/03/04 10:59:34;;;;;;;33.87;24.37;;;;;;;8.82;100.00;96587.81;5033739;28;101861;-62
2023/03/04 11:02:01;;;;;;;33.33;23.60;;;;;;;8.88;100.00;96570.19;5028146;27;105491;-61
2023/03/04 11:04:34;;;;;;;32.30;23.13;;;;;;;9.03;100.00;96568.63;5030068;28;101999;-62
2023/03/04 11:07:01;;;;;;;28.40;21.80;;;;;;;9.58;100.00;96574.13;5030935;28;105596;-61
2023/03/04 11:09:29;;;;;;;28.60;21.90;;;;;;;9.11;100.00;96573.53;5029753;28;105983;-62
2023/03/04 11:11:59;;;;;;;29.83;21.60;;;;;;;9.63;100.00;96561.75;5031667;27;102033;-62
2023/03/04 11:14:31;;;;;;;28.93;21.60;;;;;;;9.68;100.00;96566.34;5031030;27;103677;-62
2023/03/04 11:17:01;;;;;;;32.30;22.80;;;;;;;9.46;100.00;96565.44;5029105;28;104364;-62
2023/03/04 11:19:35;;;;;;;33.13;23.77;;;;;;;9.70;100.00;96566.94;5031009;27;101667;-62
2023/03/04 11:22:03;;;;;;;32.30;23.13;;;;;;;9.44;100.00;96564.88;5034015;27;102938;-62